createdAt,value
2018-04-02T17:03:28.590Z,29.20
2018-04-02T17:05:56.063Z,29.20
2018-04-02T17:08:23.596Z,30.20
2018-04-02T17:10:51.078Z,30.00
2018-04-02T17:13:18.560Z,30.70
2018-04-02T17:15:46.047Z,31.20
2018-04-02T17:18:13.505Z,32.20
2018-04-02T17:20:40.971Z,34.60
2018-04-02T17:23:09.329Z,34.40
2018-04-02T17:25:36.850Z,34.30
2018-04-02T17:28:04.327Z,34.30
2018-04-02T17:30:31.977Z,35.20
2018-04-02T17:32:59.470Z,35.70
2018-04-02T17:35:28.121Z,36.60
2018-04-02T17:37:55.570Z,36.60
2018-04-02T17:40:23.094Z,36.00
2018-04-02T17:42:50.503Z,37.20
2018-04-02T17:45:17.982Z,37.50
2018-04-02T17:47:45.435Z,38.20
2018-04-02T17:50:22.968Z,38.50
2018-04-02T17:52:50.427Z,38.20
2018-04-02T17:55:17.937Z,38.70
2018-04-02T17:57:45.819Z,38.00
2018-04-02T18:00:13.323Z,37.50
2018-04-02T18:02:40.793Z,38.30
2018-04-02T18:05:08.340Z,38.90
2018-04-02T18:07:35.871Z,38.80
2018-04-02T18:10:03.346Z,38.80
2018-04-02T18:12:30.860Z,39.40
2018-04-02T18:14:58.351Z,39.20
2018-04-02T18:17:25.852Z,38.60
2018-04-02T18:19:54.157Z,38.50
2018-04-02T18:22:22.409Z,39.00
2018-04-02T18:24:49.993Z,38.90
2018-04-02T18:27:18.288Z,39.30
2018-04-02T18:29:46.492Z,39.20
2018-04-02T18:32:14.031Z,39.00
2018-04-02T18:34:41.516Z,38.10
2018-04-02T18:37:09.762Z,39.50
2018-04-02T18:39:37.315Z,39.50
2018-04-02T18:42:04.838Z,38.80
2018-04-02T18:44:32.338Z,39.20
2018-04-02T18:46:59.803Z,40.10
2018-04-02T18:49:27.381Z,39.10
2018-04-02T18:51:54.834Z,39.60
2018-04-02T18:54:22.318Z,38.50
2018-04-02T18:56:49.835Z,39.50
2018-04-02T18:59:17.311Z,38.70
2018-04-02T19:01:44.767Z,38.20
2018-04-02T19:04:12.249Z,38.80
2018-04-02T19:06:39.749Z,39.20
2018-04-02T19:09:07.991Z,37.80
2018-04-02T19:11:35.463Z,37.80
2018-04-02T19:14:02.952Z,38.60
2018-04-02T19:16:30.426Z,39.60
2018-04-02T19:18:57.955Z,40.80
2018-04-02T19:21:26.197Z,39.30
2018-04-02T19:23:53.664Z,39.30
2018-04-02T19:26:21.312Z,40.70
2018-04-02T19:28:48.911Z,39.90
2018-04-02T19:31:17.151Z,39.80
2018-04-02T19:33:44.636Z,39.80
2018-04-02T19:36:12.886Z,40.20
2018-04-02T19:38:40.397Z,40.10
2018-04-02T19:41:07.893Z,40.10
2018-04-02T19:43:35.360Z,41.20
2018-04-02T19:46:02.840Z,40.50
2018-04-02T19:48:31.073Z,42.00
2018-04-02T19:50:58.586Z,42.00
2018-04-02T19:53:26.062Z,42.30
2018-04-02T19:55:53.537Z,42.10
2018-04-02T19:58:21.022Z,42.90
2018-04-02T20:00:48.495Z,41.10
2018-04-02T20:03:15.950Z,42.40
2018-04-02T20:05:43.425Z,42.60
2018-04-02T20:08:11.709Z,41.80
2018-04-02T20:10:39.200Z,41.70
2018-04-02T20:13:06.733Z,41.60
2018-04-02T20:15:34.152Z,42.70
2018-04-02T20:18:01.648Z,42.40
2018-04-02T20:20:29.819Z,42.90
2018-04-02T20:22:57.373Z,42.60
2018-04-02T20:25:25.173Z,42.60
2018-04-02T20:27:52.711Z,42.70
2018-04-02T20:30:20.192Z,43.20
2018-04-02T20:32:47.785Z,42.50
2018-04-02T20:35:16.139Z,43.10
2018-04-02T20:37:43.611Z,43.10
2018-04-02T20:40:11.117Z,43.40
2018-04-02T20:42:38.666Z,43.90
2018-04-02T20:45:06.171Z,43.90
2018-04-02T20:47:34.356Z,43.90
2018-04-02T20:50:02.651Z,45.10
2018-04-02T20:52:31.172Z,45.20
2018-04-02T20:54:58.905Z,45.10
2018-04-02T20:57:26.408Z,46.20
2018-04-02T20:59:54.913Z,46.10
2018-04-02T21:02:22.441Z,46.00
2018-04-02T21:04:50.738Z,45.30
2018-04-02T21:07:19.048Z,44.60
2018-04-02T21:09:46.598Z,44.60
2018-04-02T21:12:14.054Z,45.80
2018-04-02T21:14:41.510Z,45.00
2018-04-02T21:17:08.979Z,44.90
2018-04-02T21:19:37.255Z,47.10
2018-04-02T21:22:05.854Z,45.70
2018-04-02T21:24:33.402Z,45.70
2018-04-02T21:27:01.680Z,47.10
2018-04-02T21:29:29.166Z,47.10
2018-04-02T21:31:56.653Z,47.50
2018-04-02T21:34:24.126Z,46.50
2018-04-02T21:36:51.609Z,47.60
2018-04-02T21:39:19.915Z,49.40
2018-04-02T21:41:47.457Z,49.30
2018-04-02T21:44:15.225Z,49.20
2018-04-02T21:46:43.456Z,50.10
2018-04-02T21:49:10.917Z,50.10
2018-04-02T21:51:38.715Z,51.30
2018-04-02T21:54:06.951Z,51.40
2018-04-02T21:56:34.421Z,51.40
2018-04-02T21:59:02.018Z,51.50
2018-04-02T22:01:29.522Z,50.80
2018-04-02T22:03:57.072Z,51.70
2018-04-02T22:06:36.377Z,52.20
2018-04-02T22:09:03.866Z,52.00
2018-04-02T22:11:31.347Z,52.50
2018-04-02T22:13:58.789Z,52.90
2018-04-02T22:16:26.258Z,53.50
2018-04-02T22:18:54.513Z,53.40
2018-04-02T22:21:23.613Z,53.40
2018-04-02T22:23:51.056Z,52.90
2018-04-02T22:26:20.454Z,52.90
2018-04-02T22:28:53.188Z,53.40
2018-04-02T22:31:21.651Z,54.20
2018-04-02T22:33:49.102Z,54.10
2018-04-02T22:36:16.677Z,54.00
2018-04-02T22:38:45.751Z,54.30
2018-04-02T22:41:14.138Z,54.20
2018-04-02T22:43:41.594Z,55.20
2018-04-02T22:46:09.086Z,55.10
2018-04-02T22:48:37.305Z,54.40
2018-04-02T22:51:04.774Z,54.30
2018-04-02T22:53:32.230Z,54.90
2018-04-02T22:55:59.706Z,55.30
2018-04-02T22:58:27.937Z,54.80
2018-04-02T23:00:55.410Z,54.70
2018-04-02T23:03:22.867Z,55.50
2018-04-02T23:05:50.334Z,55.90
2018-04-02T23:08:17.800Z,55.30
2018-04-02T23:10:45.329Z,55.30
2018-04-02T23:13:14.373Z,56.00
2018-04-02T23:15:42.672Z,57.30
2018-04-02T23:18:10.901Z,57.30
2018-04-02T23:20:42.074Z,57.20
2018-04-02T23:23:11.841Z,58.30
2018-04-02T23:25:41.236Z,58.30
2018-04-02T23:28:10.912Z,57.80
2018-04-02T23:30:38.400Z,57.50
2018-04-02T23:33:05.852Z,58.20
2018-04-02T23:35:33.462Z,57.30
2018-04-02T23:38:00.922Z,56.70
2018-04-02T23:40:29.302Z,55.70
2018-04-02T23:42:56.806Z,55.80
2018-04-02T23:45:24.281Z,56.40
2018-04-02T23:47:51.744Z,55.50
2018-04-02T23:50:19.214Z,55.10
2018-04-02T23:52:46.674Z,53.50
2018-04-02T23:55:14.167Z,53.70
2018-04-02T23:57:41.588Z,53.10
